createdAt,value
2023-01-29T00:02:35.313Z,101579.72
2023-01-29T00:05:28.490Z,101569.88
2023-01-29T00:08:17.387Z,101579.91
2023-01-29T00:11:06.972Z,101571.22
2023-01-29T00:13:57.079Z,101564.53
2023-01-29T00:16:45.860Z,101573.41
2023-01-29T00:19:34.727Z,101561.59
2023-01-29T00:22:23.454Z,101554.94
2023-01-29T00:25:12.858Z,101557.22
2023-01-29T00:28:01.643Z,101556.94
2023-01-29T00:30:51.782Z,101555.94
2023-01-29T00:33:40.646Z,101542.81
2023-01-29T00:36:29.554Z,101538.47
2023-01-29T00:39:29.399Z,101538.81
2023-01-29T00:42:42.646Z,101543.28
2023-01-29T00:45:31.453Z,101538.94
2023-01-29T00:48:21.533Z,101533.63
2023-01-29T00:51:10.294Z,101540.94
2023-01-29T00:53:59.393Z,101541.94
2023-01-29T00:56:48.124Z,101537.09
2023-01-29T00:59:36.879Z,101541.28
2023-01-29T01:02:43.533Z,101539.66
2023-01-29T01:05:33.775Z,101556.78
2023-01-29T01:08:40.032Z,101550.53
2023-01-29T01:11:28.868Z,101557.31
2023-01-29T01:14:17.729Z,101548.00
2023-01-29T01:17:07.021Z,101555.13
2023-01-29T01:19:55.793Z,101553.31
2023-01-29T01:22:46.009Z,101554.28
2023-01-29T01:25:34.755Z,101544.28
2023-01-29T01:28:23.534Z,101539.97
2023-01-29T01:31:13.737Z,101543.09
2023-01-29T01:34:02.929Z,101544.28
2023-01-29T01:36:51.851Z,101539.06
2023-01-29T01:39:42.068Z,101537.56
2023-01-29T01:42:31.310Z,101527.91
2023-01-29T01:45:22.851Z,101527.56
2023-01-29T01:48:14.730Z,101515.59
2023-01-29T01:51:06.563Z,101517.25
2023-01-29T01:53:58.437Z,101526.63
2023-01-29T01:56:55.463Z,101525.63
2023-01-29T01:59:45.299Z,101533.28
2023-01-29T02:02:52.085Z,101531.28
2023-01-29T02:05:58.947Z,101532.16
2023-01-29T02:09:10.769Z,101522.47
2023-01-29T02:12:01.414Z,101506.31
2023-01-29T02:14:50.495Z,101510.97
2023-01-29T02:17:39.348Z,101501.00
2023-01-29T02:20:29.653Z,101506.00
2023-01-29T02:23:33.484Z,101505.50
2023-01-29T02:26:35.785Z,101505.50
2023-01-29T02:29:34.040Z,101508.97
2023-01-29T02:32:27.498Z,101513.66
2023-01-29T02:35:30.007Z,101511.84
2023-01-29T02:38:34.546Z,101506.66
2023-01-29T02:41:28.560Z,101501.84
2023-01-29T02:44:23.214Z,101505.31
2023-01-29T02:47:18.869Z,101517.66
2023-01-29T02:50:13.288Z,101512.31
2023-01-29T02:53:05.654Z,101513.97
2023-01-29T02:55:56.879Z,101513.97
2023-01-29T02:58:48.136Z,101512.13
2023-01-29T03:01:40.802Z,101512.31
2023-01-29T03:04:33.762Z,101511.13
2023-01-29T03:07:39.186Z,101514.97
2023-01-29T03:10:33.387Z,101518.00
2023-01-29T03:13:27.010Z,101517.97
2023-01-29T03:16:20.561Z,101523.81
2023-01-29T03:19:13.613Z,101528.00
2023-01-29T03:22:07.522Z,101527.00
2023-01-29T03:25:16.880Z,101508.00
2023-01-29T03:28:23.827Z,101504.66
2023-01-29T03:31:32.253Z,101511.66
2023-01-29T03:34:28.523Z,101511.66
2023-01-29T03:37:23.258Z,101515.97
2023-01-29T03:40:13.154Z,101520.16
2023-01-29T03:43:10.276Z,101514.97
2023-01-29T03:46:04.305Z,101524.09
2023-01-29T03:48:57.370Z,101522.44
2023-01-29T03:51:54.819Z,101508.97
2023-01-29T03:54:53.356Z,101516.59
2023-01-29T03:57:45.748Z,101513.59
2023-01-29T04:00:40.479Z,101522.78
2023-01-29T04:03:34.348Z,101521.59
2023-01-29T04:06:25.678Z,101527.63
2023-01-29T04:09:17.187Z,101517.31
2023-01-29T04:12:10.288Z,101514.50
2023-01-29T04:15:00.697Z,101502.19
2023-01-29T04:17:52.786Z,101497.66
2023-01-29T04:20:41.639Z,101487.66
2023-01-29T04:23:30.373Z,101483.63
2023-01-29T04:26:41.348Z,101472.66
2023-01-29T04:29:43.030Z,101479.69
2023-01-29T04:32:34.808Z,101467.31
2023-01-29T04:35:31.035Z,101465.66
2023-01-29T04:38:27.131Z,101459.47
2023-01-29T04:41:21.862Z,101457.28
2023-01-29T04:44:15.411Z,101460.31
2023-01-29T04:47:10.430Z,101451.34
2023-01-29T04:50:05.291Z,101455.00
2023-01-29T04:52:57.978Z,101451.00
2023-01-29T04:55:50.426Z,101445.06
2023-01-29T04:58:42.504Z,101430.84
2023-01-29T05:01:33.435Z,101430.84
2023-01-29T05:04:24.513Z,101428.56
2023-01-29T05:07:15.290Z,101426.19
2023-01-29T05:10:04.938Z,101417.22
2023-01-29T05:13:03.828Z,101414.75
2023-01-29T05:15:56.058Z,101416.41
2023-01-29T05:18:44.762Z,101417.03
2023-01-29T05:21:34.748Z,101419.22
2023-01-29T05:24:26.638Z,101414.75
2023-01-29T05:27:37.606Z,101408.09
2023-01-29T05:30:26.258Z,101400.44
2023-01-29T05:33:16.854Z,101408.41
2023-01-29T05:36:07.013Z,101398.59
2023-01-29T05:38:57.050Z,101402.72
2023-01-29T05:41:45.786Z,101406.53
2023-01-29T05:44:34.395Z,101394.41
2023-01-29T05:47:23.153Z,101397.41
2023-01-29T05:50:13.007Z,101399.72
2023-01-29T05:53:02.406Z,101391.09
2023-01-29T05:55:52.399Z,101393.91
2023-01-29T05:58:41.027Z,101390.41
2023-01-29T06:01:29.692Z,101402.44
2023-01-29T06:04:18.260Z,101406.75
2023-01-29T06:07:06.902Z,101416.06
2023-01-29T06:09:55.566Z,101415.06
2023-01-29T06:12:46.188Z,101418.53
2023-01-29T06:15:37.233Z,101401.41
2023-01-29T06:18:25.840Z,101411.19
2023-01-29T06:21:15.077Z,101416.22
2023-01-29T06:24:03.881Z,101435.19
2023-01-29T06:26:52.515Z,101448.34
2023-01-29T06:29:42.599Z,101452.34
2023-01-29T06:32:31.432Z,101455.38
2023-01-29T06:35:20.246Z,101457.38
2023-01-29T06:38:08.925Z,101457.84
2023-01-29T06:40:57.729Z,101456.53
2023-01-29T06:43:46.641Z,101456.34
2023-01-29T06:46:36.901Z,101452.34
2023-01-29T06:49:25.779Z,101459.31
2023-01-29T06:52:15.104Z,101460.50
2023-01-29T06:55:03.814Z,101469.69
2023-01-29T06:57:52.556Z,101491.28
2023-01-29T07:00:41.388Z,101501.31
2023-01-29T07:03:31.478Z,101491.28
2023-01-29T07:06:20.429Z,101492.78
2023-01-29T07:09:09.201Z,101501.63
2023-01-29T07:11:57.868Z,101506.78
2023-01-29T07:14:47.988Z,101508.75
2023-01-29T07:17:36.811Z,101509.25
2023-01-29T07:20:28.141Z,101510.56
2023-01-29T07:23:17.608Z,101512.03
2023-01-29T07:26:07.136Z,101517.69
2023-01-29T07:28:55.919Z,101502.84
2023-01-29T07:31:44.778Z,101493.88
2023-01-29T07:34:33.631Z,101492.19
2023-01-29T07:37:24.009Z,101495.50
2023-01-29T07:40:13.892Z,101492.84
2023-01-29T07:43:03.835Z,101491.53
2023-01-29T07:45:52.820Z,101496.22
2023-01-29T07:48:41.628Z,101494.91
2023-01-29T07:51:30.287Z,101492.72
2023-01-29T07:54:20.542Z,101491.91
2023-01-29T07:57:09.357Z,101473.94
2023-01-29T07:59:58.065Z,101474.31
2023-01-29T08:02:46.777Z,101461.66
2023-01-29T08:05:35.807Z,101455.00
2023-01-29T08:08:25.819Z,101446.34
2023-01-29T08:11:16.545Z,101446.00
2023-01-29T08:14:05.227Z,101446.69
2023-01-29T08:16:53.976Z,101446.81
2023-01-29T08:19:42.692Z,101437.34
2023-01-29T08:22:31.604Z,101440.69
2023-01-29T08:25:20.347Z,101425.03
2023-01-29T08:28:11.793Z,101428.84
2023-01-29T08:31:00.892Z,101429.38
2023-01-29T08:33:50.024Z,101435.69
2023-01-29T08:36:38.736Z,101432.03
2023-01-29T08:39:27.609Z,101434.84
2023-01-29T08:42:16.424Z,101426.19
2023-01-29T08:45:07.811Z,101435.34
2023-01-29T08:47:56.699Z,101446.97
2023-01-29T08:50:45.552Z,101455.97
2023-01-29T08:53:34.669Z,101454.28
2023-01-29T08:56:23.821Z,101451.97
2023-01-29T08:59:13.264Z,101450.63
2023-01-29T09:02:03.625Z,101442.31
2023-01-29T09:04:52.432Z,101434.31
2023-01-29T09:07:41.238Z,101433.81
2023-01-29T09:10:30.115Z,101425.53
2023-01-29T09:13:18.984Z,101430.03
2023-01-29T09:16:08.648Z,101436.31
2023-01-29T09:18:59.002Z,101436.66
2023-01-29T09:21:49.532Z,101430.44
2023-01-29T09:24:38.372Z,101430.50
2023-01-29T09:27:27.963Z,101412.47
2023-01-29T09:30:17.040Z,101403.81
2023-01-29T09:33:06.176Z,101414.00
2023-01-29T09:35:56.490Z,101425.31
2023-01-29T09:38:47.783Z,101421.28
2023-01-29T09:41:45.389Z,101417.81
2023-01-29T09:44:47.728Z,101418.81
2023-01-29T09:47:37.968Z,101409.44
2023-01-29T09:50:32.206Z,101405.63
2023-01-29T09:53:26.250Z,101402.81
2023-01-29T09:56:17.720Z,101388.41
2023-01-29T09:59:06.500Z,101374.75
2023-01-29T10:02:03.686Z,101368.06
2023-01-29T10:05:07.929Z,101371.06
2023-01-29T10:08:20.698Z,101371.75
2023-01-29T10:11:19.432Z,101368.06
2023-01-29T10:14:15.671Z,101365.72
2023-01-29T10:17:14.768Z,101373.53
2023-01-29T10:20:15.580Z,101381.75
2023-01-29T10:23:12.390Z,101376.75
2023-01-29T10:26:01.255Z,101375.59
2023-01-29T10:28:52.790Z,101371.75
2023-01-29T10:31:42.107Z,101375.06
2023-01-29T10:34:35.597Z,101378.94
2023-01-29T10:37:25.372Z,101372.44
2023-01-29T10:40:22.639Z,101373.59
2023-01-29T10:43:14.737Z,101374.47
2023-01-29T10:46:13.381Z,101369.78
2023-01-29T10:49:12.054Z,101365.16
2023-01-29T10:52:12.165Z,101360.13
2023-01-29T10:55:07.901Z,101352.13
2023-01-29T10:58:03.476Z,101335.63
2023-01-29T11:00:52.232Z,101316.47
2023-01-29T11:03:42.290Z,101319.19
2023-01-29T11:06:32.661Z,101316.81
2023-01-29T11:09:29.247Z,101313.50
2023-01-29T11:12:21.653Z,101306.16
2023-01-29T11:15:18.601Z,101297.50
2023-01-29T11:18:13.541Z,101291.81
2023-01-29T11:21:05.423Z,101293.13
2023-01-29T11:24:12.803Z,101276.13
2023-01-29T11:27:01.851Z,101279.47
2023-01-29T11:29:51.790Z,101281.13
2023-01-29T11:32:40.533Z,101271.63
2023-01-29T11:35:30.601Z,101254.09
2023-01-29T11:38:24.605Z,101260.16
2023-01-29T11:41:18.519Z,101255.13
2023-01-29T11:44:19.842Z,101256.44
2023-01-29T11:47:19.827Z,101256.13
2023-01-29T11:50:08.985Z,101260.25
2023-01-29T11:53:01.338Z,101262.09
2023-01-29T11:55:51.685Z,101261.44
2023-01-29T11:58:43.071Z,101253.59
2023-01-29T12:01:34.852Z,101255.09
2023-01-29T12:04:24.594Z,101246.09
2023-01-29T12:07:15.359Z,101227.09
2023-01-29T12:10:04.468Z,101223.91
2023-01-29T12:13:06.222Z,101222.41
2023-01-29T12:16:13.279Z,101220.72
2023-01-29T12:19:07.764Z,101217.41
2023-01-29T12:22:03.023Z,101196.41
2023-01-29T12:24:56.552Z,101191.75
2023-01-29T12:27:48.661Z,101193.00
2023-01-29T12:30:46.501Z,101179.72
2023-01-29T12:33:41.519Z,101166.66
2023-01-29T12:36:33.837Z,101172.47
2023-01-29T12:39:22.789Z,101180.38
2023-01-29T12:42:14.967Z,101177.03
2023-01-29T12:45:05.391Z,101163.59
2023-01-29T12:47:57.452Z,101171.56
2023-01-29T12:50:46.920Z,101175.34
2023-01-29T12:53:38.928Z,101168.00
2023-01-29T12:56:30.447Z,101172.25
2023-01-29T12:59:22.011Z,101162.06
2023-01-29T13:02:19.726Z,101156.84
2023-01-29T13:05:19.822Z,101154.13
2023-01-29T13:08:13.000Z,101163.13
2023-01-29T13:11:03.727Z,101155.91
2023-01-29T13:13:56.462Z,101143.38
2023-01-29T13:16:49.810Z,101135.94
2023-01-29T13:20:06.379Z,101136.91
2023-01-29T13:26:32.921Z,101123.41
2023-01-29T13:29:24.934Z,101121.47
2023-01-29T13:32:14.847Z,101116.50
2023-01-29T13:35:08.172Z,101124.31
2023-01-29T13:37:58.868Z,101124.09
2023-01-29T13:40:51.114Z,101127.84
2023-01-29T13:43:42.508Z,101129.75
2023-01-29T13:46:31.987Z,101116.72
2023-01-29T13:49:28.908Z,101132.00
2023-01-29T13:52:29.089Z,101144.72
2023-01-29T13:55:29.152Z,101138.66
2023-01-29T13:58:18.973Z,101129.44
2023-01-29T14:01:08.136Z,101124.56
2023-01-29T14:04:06.575Z,101117.91
2023-01-29T14:06:56.722Z,101115.63
2023-01-29T14:10:03.816Z,101114.03
2023-01-29T14:12:56.698Z,101116.06
2023-01-29T14:15:46.260Z,101123.16
2023-01-29T14:18:38.224Z,101121.06
2023-01-29T14:21:29.915Z,101119.50
2023-01-29T14:24:21.927Z,101117.72
2023-01-29T14:27:21.872Z,101100.41
2023-01-29T14:30:33.447Z,101095.88
2023-01-29T14:33:31.404Z,101102.34
2023-01-29T14:36:22.683Z,101097.38
2023-01-29T14:39:23.139Z,101104.00
2023-01-29T14:42:20.564Z,101106.97
2023-01-29T14:45:23.858Z,101109.00
2023-01-29T14:48:40.680Z,101121.69
2023-01-29T14:51:34.463Z,101121.34
2023-01-29T14:54:28.000Z,101116.00
2023-01-29T14:57:18.924Z,101123.38
2023-01-29T15:00:10.032Z,101119.47
2023-01-29T15:03:02.172Z,101109.94
2023-01-29T15:05:53.584Z,101117.00
2023-01-29T15:08:48.982Z,101115.06
2023-01-29T15:11:46.138Z,101117.28
2023-01-29T15:14:37.668Z,101103.28
2023-01-29T15:17:30.935Z,101104.59
2023-01-29T15:20:30.760Z,101093.31
2023-01-29T15:23:37.212Z,101100.31
2023-01-29T15:26:27.263Z,101086.22
2023-01-29T15:29:26.460Z,101083.94
2023-01-29T15:32:20.407Z,101079.84
2023-01-29T15:35:11.446Z,101081.34
2023-01-29T15:38:05.757Z,101086.69
2023-01-29T15:40:56.911Z,101076.38
2023-01-29T15:43:47.616Z,101081.25
2023-01-29T15:46:38.459Z,101076.44
2023-01-29T15:49:33.212Z,101077.28
2023-01-29T15:52:29.475Z,101072.88
2023-01-29T15:55:28.710Z,101067.97
2023-01-29T15:58:29.550Z,101064.81
2023-01-29T16:01:20.343Z,101060.88
2023-01-29T16:04:15.328Z,101060.97
2023-01-29T16:07:05.762Z,101065.38
2023-01-29T16:09:54.933Z,101064.00
2023-01-29T16:12:47.301Z,101057.75
2023-01-29T16:15:39.466Z,101054.91
2023-01-29T16:18:35.137Z,101054.81
2023-01-29T16:21:27.840Z,101054.41
2023-01-29T16:24:22.380Z,101054.53
2023-01-29T16:27:15.278Z,101047.78
2023-01-29T16:30:07.561Z,101028.56
2023-01-29T16:33:04.085Z,101036.84
2023-01-29T16:35:53.523Z,101031.31
2023-01-29T16:38:44.484Z,101032.50
2023-01-29T16:41:36.509Z,101032.88
2023-01-29T16:44:36.430Z,101034.25
2023-01-29T16:47:41.552Z,101021.00
2023-01-29T16:50:40.618Z,101013.72
2023-01-29T16:53:34.286Z,101008.94
2023-01-29T16:56:24.203Z,101013.25
2023-01-29T16:59:18.388Z,101015.84
2023-01-29T17:02:19.455Z,101010.94
2023-01-29T17:05:11.755Z,101012.97
2023-01-29T17:08:01.192Z,101002.09
2023-01-29T17:10:50.318Z,101001.72
2023-01-29T17:13:41.665Z,101015.47
2023-01-29T17:16:32.505Z,101005.59
2023-01-29T17:19:24.598Z,101007.81
2023-01-29T17:22:44.838Z,101008.25
2023-01-29T17:25:39.610Z,101005.47
2023-01-29T17:28:28.245Z,101000.47
2023-01-29T17:31:17.165Z,100995.84
2023-01-29T17:34:12.673Z,100996.59
2023-01-29T17:37:01.467Z,100998.63
2023-01-29T17:39:52.870Z,100994.56
2023-01-29T17:42:47.156Z,100998.25
2023-01-29T17:45:37.177Z,101000.75
2023-01-29T17:48:32.471Z,100995.88
2023-01-29T17:51:24.823Z,100995.19
2023-01-29T17:57:22.728Z,100976.97
2023-01-29T18:00:26.179Z,100979.16
2023-01-29T18:03:18.904Z,100981.50
2023-01-29T18:06:11.111Z,100983.06
2023-01-29T18:12:08.101Z,100976.88
2023-01-29T18:14:58.766Z,100967.84
2023-01-29T18:18:00.832Z,100958.97
2023-01-29T18:20:51.407Z,100956.69
2023-01-29T18:23:53.579Z,100962.97
2023-01-29T18:26:43.045Z,100959.66
2023-01-29T18:29:31.835Z,100942.31
2023-01-29T18:32:20.463Z,100937.53
2023-01-29T18:35:11.433Z,100949.06
2023-01-29T18:38:00.139Z,100937.34
2023-01-29T18:40:50.163Z,100937.53
2023-01-29T18:43:44.659Z,100936.09
2023-01-29T18:46:58.570Z,100934.13
2023-01-29T18:49:48.897Z,100940.41
2023-01-29T18:53:10.611Z,100927.31
2023-01-29T18:59:29.789Z,100915.72
2023-01-29T19:02:23.550Z,100901.44
2023-01-29T19:05:14.202Z,100903.28
2023-01-29T19:08:05.259Z,100895.84
2023-01-29T19:10:53.881Z,100893.81
2023-01-29T19:13:47.904Z,100891.97
2023-01-29T19:16:36.651Z,100880.19
2023-01-29T19:19:25.668Z,100885.44
2023-01-29T19:22:14.376Z,100890.66
2023-01-29T19:25:05.232Z,100879.31
2023-01-29T19:27:53.946Z,100875.91
2023-01-29T19:30:42.659Z,100874.34
2023-01-29T19:33:31.297Z,100876.63
2023-01-29T19:36:19.951Z,100871.97
2023-01-29T19:39:08.574Z,100864.75
2023-01-29T19:41:58.579Z,100863.97
2023-01-29T19:44:47.262Z,100868.16
2023-01-29T19:47:40.218Z,100865.38
2023-01-29T19:50:28.924Z,100862.06
2023-01-29T19:53:17.603Z,100861.69
2023-01-29T19:56:07.907Z,100859.47
2023-01-29T19:58:58.240Z,100858.63
2023-01-29T20:01:46.898Z,100866.06
2023-01-29T20:04:35.748Z,100866.69
2023-01-29T20:07:24.371Z,100864.25
2023-01-29T20:10:17.341Z,100859.06
2023-01-29T20:13:06.665Z,100872.13
2023-01-29T20:15:57.239Z,100881.84
2023-01-29T20:18:46.257Z,100879.38
2023-01-29T20:21:34.843Z,100874.41
2023-01-29T20:24:24.772Z,100876.44
2023-01-29T20:27:14.173Z,100866.00
2023-01-29T20:30:02.903Z,100864.97
2023-01-29T20:32:52.883Z,100862.88
2023-01-29T20:35:41.614Z,100862.81
2023-01-29T20:38:31.885Z,100861.44
2023-01-29T20:41:23.178Z,100852.13
2023-01-29T20:44:11.824Z,100850.81
2023-01-29T20:47:02.594Z,100854.31
2023-01-29T20:49:52.595Z,100855.13
2023-01-29T20:52:42.374Z,100851.16
2023-01-29T20:55:31.570Z,100843.31
2023-01-29T20:58:20.375Z,100843.72
2023-01-29T21:01:09.682Z,100843.56
2023-01-29T21:03:58.386Z,100838.22
2023-01-29T21:06:48.466Z,100824.25
2023-01-29T21:09:37.119Z,100819.19
2023-01-29T21:12:26.028Z,100817.72
2023-01-29T21:15:14.643Z,100811.97
2023-01-29T21:18:04.587Z,100804.25
2023-01-29T21:20:53.470Z,100795.78
2023-01-29T21:23:45.075Z,100787.88
2023-01-29T21:26:33.710Z,100783.00
2023-01-29T21:29:22.351Z,100788.16
2023-01-29T21:32:11.665Z,100787.06
2023-01-29T21:35:00.319Z,100768.81
2023-01-29T21:37:48.951Z,100773.06
2023-01-29T21:40:38.926Z,100770.19
2023-01-29T21:43:28.030Z,100768.16
2023-01-29T21:46:16.780Z,100767.81
2023-01-29T21:49:05.553Z,100749.66
2023-01-29T21:51:54.674Z,100751.13
2023-01-29T21:54:47.244Z,100746.66
2023-01-29T21:57:37.460Z,100733.34
2023-01-29T22:00:26.459Z,100733.19
2023-01-29T22:03:15.611Z,100721.69
2023-01-29T22:06:04.592Z,100706.53
2023-01-29T22:08:53.661Z,100706.53
2023-01-29T22:11:45.329Z,100702.09
2023-01-29T22:14:35.804Z,100692.34
2023-01-29T22:17:24.555Z,100682.91
2023-01-29T22:20:15.698Z,100672.78
2023-01-29T22:23:05.446Z,100667.16
2023-01-29T22:25:54.539Z,100659.81
2023-01-29T22:28:44.402Z,100651.56
2023-01-29T22:31:34.496Z,100639.88
2023-01-29T22:34:23.129Z,100638.88
2023-01-29T22:37:11.806Z,100625.28
2023-01-29T22:40:00.541Z,100630.69
2023-01-29T22:42:49.111Z,100628.97
2023-01-29T22:45:40.658Z,100616.38
2023-01-29T22:48:31.456Z,100607.72
2023-01-29T22:51:21.381Z,100596.34
2023-01-29T22:54:10.034Z,100581.34
2023-01-29T22:56:58.695Z,100585.78
2023-01-29T22:59:48.580Z,100581.72
2023-01-29T23:02:41.271Z,100575.13
2023-01-29T23:05:31.418Z,100570.59
2023-01-29T23:08:20.097Z,100566.38
2023-01-29T23:11:18.609Z,100572.38
2023-01-29T23:14:07.344Z,100556.09
2023-01-29T23:16:56.894Z,100555.47
2023-01-29T23:19:45.538Z,100555.75
2023-01-29T23:22:35.663Z,100556.91
2023-01-29T23:25:44.471Z,100548.28
2023-01-29T23:28:32.232Z,100542.50
2023-01-29T23:31:21.182Z,100539.66
2023-01-29T23:34:10.049Z,100531.38
2023-01-29T23:36:58.681Z,100526.69
2023-01-29T23:39:49.244Z,100519.06
2023-01-29T23:42:37.844Z,100515.78
2023-01-29T23:45:26.770Z,100497.13
2023-01-29T23:48:15.352Z,100485.91
2023-01-29T23:51:04.041Z,100475.19
2023-01-29T23:53:53.072Z,100475.44
2023-01-29T23:56:43.264Z,100476.91
2023-01-29T23:59:32.018Z,100478.47
